Time;durP1;ratioP1;P1;durP2;ratioP2;P2;SDS_P1;SDS_P2;PMS_P1;PMS_P2;Temp;Humidity;BMP_temperature;BMP_pressure;BME280_temperature;BME280_humidity;BME280_pressure;Samples;Min_cycle;Max_cycle;Signal;HPM_P1;HPM_P2
2023/07/04 00:01:51;;;;;;;;;20.20;19.80;;;;;22.69;34.35;99109.44;4879220;29;8864;-79
2023/07/04 00:04:21;;;;;;;;;20.75;19.50;;;;;22.70;34.36;99109.31;4910494;29;8890;-82
2023/07/04 00:06:50;;;;;;;;;21.00;20.50;;;;;22.66;34.37;99118.59;4912406;29;8891;-79
2023/07/04 00:09:19;;;;;;;;;26.75;25.00;;;;;22.85;35.01;99118.00;4928448;29;8898;-78
2023/07/04 00:11:50;;;;;;;;;27.25;26.50;;;;;22.94;35.67;99111.06;4913101;29;8840;-80
2023/07/04 00:14:19;;;;;;;;;29.75;26.00;;;;;23.13;35.82;99107.78;4928394;29;8859;-78
2023/07/04 00:16:49;;;;;;;;;29.75;28.75;;;;;23.27;35.75;99112.88;4913122;29;8855;-79
2023/07/04 00:19:18;;;;;;;;;31.00;29.00;;;;;23.36;35.38;99104.06;4929911;29;8958;-80
2023/07/04 00:21:47;;;;;;;;;20.25;20.25;;;;;23.44;34.28;99113.34;4931698;29;8921;-78
2023/07/04 00:24:17;;;;;;;;;20.60;19.40;;;;;23.51;33.96;99111.84;4931259;29;9671;-78
2023/07/04 00:26:46;;;;;;;;;16.80;16.00;;;;;23.55;33.92;99110.66;4929402;29;8859;-78
2023/07/04 00:29:15;;;;;;;;;9.80;9.80;;;;;23.55;33.03;99116.88;4930123;29;8847;-79
2023/07/04 00:31:46;;;;;;;;;16.60;14.40;;;;;23.39;33.20;99111.88;4928542;29;8949;-81
2023/07/04 00:34:17;;;;;;;;;16.00;16.00;;;;;23.52;33.89;99116.25;4928481;29;8957;-79
2023/07/04 00:36:46;;;;;;;;;19.60;18.80;;;;;23.61;34.24;99109.31;4913048;29;8897;-77
2023/07/04 00:39:15;;;;;;;;;22.25;21.50;;;;;23.67;35.18;99108.78;4908022;29;8880;-81
2023/07/04 00:41:44;;;;;;;;;23.25;20.75;;;;;23.73;36.17;99108.25;4875032;29;8917;-78
2023/07/04 00:44:23;;;;;;;;;24.50;24.00;;;;;23.82;37.85;99109.34;4891354;29;8904;-77
2023/07/04 00:47:01;;;;;;;;;22.25;21.75;;;;;23.77;38.04;99107.91;4893230;29;8905;-76
2023/07/04 00:49:38;;;;;;;;;31.25;30.25;;;;;23.77;39.25;99099.84;4898837;29;8896;-79
2023/07/04 00:52:11;;;;;;;;;28.00;26.25;;;;;23.74;39.24;99096.56;4892352;29;8898;-81
2023/07/04 00:54:43;;;;;;;;;29.25;27.75;;;;;23.67;38.60;99090.84;4880974;29;8885;-78
2023/07/04 00:57:14;;;;;;;;;30.25;30.00;;;;;23.64;39.05;99095.59;4905494;29;8891;-78
2023/07/04 00:59:46;;;;;;;;;21.60;20.80;;;;;23.55;36.37;99098.09;4926813;29;8898;-77
2023/07/04 01:02:19;;;;;;;;;17.75;17.00;;;;;23.48;35.00;99091.47;4911025;29;8887;-82
2023/07/04 01:04:53;;;;;;;;;18.80;18.60;;;;;23.43;34.59;99090.16;4910306;29;8860;-77
2023/07/04 01:07:29;;;;;;;;;17.20;17.20;;;;;23.44;35.31;99086.50;4914839;29;8872;-79
2023/07/04 01:10:05;;;;;;;;;20.50;20.50;;;;;23.40;35.29;99088.59;4911155;29;8848;-79
2023/07/04 01:12:36;;;;;;;;;19.20;19.20;;;;;23.36;35.50;99092.50;4912475;29;8875;-76
2023/07/04 01:15:05;;;;;;;;;21.50;20.50;;;;;23.35;36.11;99096.16;4928526;29;8860;-80
2023/07/04 01:17:36;;;;;;;;;21.50;20.00;;;;;23.30;35.73;99090.31;4931160;29;8978;-80
2023/07/04 01:20:08;;;;;;;;;15.00;15.00;;;;;23.28;35.35;99093.13;4929837;29;8942;-79
2023/07/04 01:22:47;;;;;;;;;21.75;21.75;;;;;23.35;36.53;99078.22;4915254;29;8906;-77
2023/07/04 01:25:30;;;;;;;;;25.75;25.00;;;;;23.40;37.14;99080.53;4921513;29;9699;-79
2023/07/04 01:28:03;;;;;;;;;27.00;26.00;;;;;23.35;37.11;99083.59;4917064;29;8986;-78
2023/07/04 01:30:35;;;;;;;;;27.75;25.00;;;;;23.35;36.90;99090.78;4916004;29;8913;-78
2023/07/04 01:33:04;;;;;;;;;40.25;34.00;;;;;23.38;39.35;99071.78;4929818;29;8867;-80
2023/07/04 01:35:34;;;;;;;;;23.25;21.50;;;;;23.35;37.84;99077.38;4897420;29;8863;-80
2023/07/04 01:38:06;;;;;;;;;14.40;12.20;;;;;23.32;36.14;99074.97;4926436;29;8901;-81
2023/07/04 01:40:36;;;;;;;;;15.00;14.80;;;;;23.26;35.60;99078.13;4913861;29;8902;-81
2023/07/04 01:43:06;;;;;;;;;19.60;17.40;;;;;23.27;35.23;99074.47;4924453;29;8863;-80
2023/07/04 01:45:37;;;;;;;;;12.60;12.00;;;;;23.21;34.56;99075.84;4914497;29;8871;-77
2023/07/04 01:48:06;;;;;;;;;13.80;13.00;;;;;23.17;34.51;99080.59;4913912;29;8883;-81
2023/07/04 01:50:35;;;;;;;;;13.00;13.00;;;;;23.15;34.48;99070.97;4915120;29;8923;-78
2023/07/04 01:53:04;;;;;;;;;14.40;13.40;;;;;23.11;34.50;99078.41;4914426;29;8887;-78
2023/07/04 01:55:33;;;;;;;;;13.20;12.20;;;;;23.09;34.27;99077.69;4914749;29;8886;-76
2023/07/04 01:58:02;;;;;;;;;7.00;7.00;;;;;23.05;34.12;99080.72;4912659;29;8891;-81
2023/07/04 02:00:32;;;;;;;;;12.80;11.80;;;;;23.02;34.48;99078.31;4931050;29;8956;-79
2023/07/04 02:03:01;;;;;;;;;11.80;11.00;;;;;23.02;34.10;99081.00;4932142;29;8897;-78
2023/07/04 02:05:30;;;;;;;;;13.60;12.20;;;;;23.04;34.42;99077.19;4935266;29;8862;-80
2023/07/04 02:07:58;;;;;;;;;14.20;14.00;;;;;23.05;34.31;99081.56;4947956;29;8906;-81
2023/07/04 02:10:28;;;;;;;;;15.40;14.40;;;;;23.03;34.26;99078.16;4915814;29;8885;-78
2023/07/04 02:12:56;;;;;;;;;11.80;11.00;;;;;23.04;34.10;99085.25;4915927;29;8902;-79
2023/07/04 02:15:25;;;;;;;;;11.00;10.40;;;;;23.04;33.92;99085.25;4929943;29;8997;-78
2023/07/04 02:17:57;;;;;;;;;13.80;11.40;;;;;23.04;34.13;99087.91;4931101;29;8862;-78
2023/07/04 02:20:26;;;;;;;;;15.40;15.40;;;;;23.01;34.50;99085.47;4930726;29;9009;-79
2023/07/04 02:22:55;;;;;;;;;12.40;11.40;;;;;23.03;34.56;99094.25;4946885;28;9006;-78
2023/07/04 02:25:24;;;;;;;;;12.60;11.60;;;;;23.00;34.42;99090.00;4930892;29;8928;-78
2023/07/04 02:27:53;;;;;;;;;8.20;8.20;;;;;23.01;34.43;99090.84;4929843;29;8882;-79
2023/07/04 02:30:22;;;;;;;;;16.20;14.20;;;;;23.02;34.35;99083.66;4930739;29;8902;-80
2023/07/04 02:32:50;;;;;;;;;14.20;13.00;;;;;23.02;34.49;99084.50;4945667;28;8858;-79
2023/07/04 02:35:22;;;;;;;;;12.40;11.80;;;;;23.02;34.38;99095.22;4949764;29;8909;-79
2023/07/04 02:37:51;;;;;;;;;15.40;13.40;;;;;23.00;34.67;99089.16;4936425;29;8890;-79
2023/07/04 02:40:20;;;;;;;;;10.60;10.60;;;;;23.00;34.41;99087.31;4910366;29;9683;-76
2023/07/04 02:42:49;;;;;;;;;14.40;14.20;;;;;23.00;34.52;99095.34;4893069;29;9694;-80
2023/07/04 02:45:18;;;;;;;;;13.20;13.20;;;;;22.98;34.71;99085.75;4894192;29;8857;-77
2023/07/04 02:47:48;;;;;;;;;16.40;15.40;;;;;22.97;35.04;99078.66;4893782;29;9013;-80
2023/07/04 02:50:22;;;;;;;;;11.60;10.60;;;;;22.94;34.70;99085.13;4893912;29;8984;-78
2023/07/04 02:52:51;;;;;;;;;8.60;8.60;;;;;22.93;34.38;99088.78;4893323;29;8873;-77
2023/07/04 02:55:20;;;;;;;;;10.60;9.60;;;;;22.92;34.59;99089.75;4912925;29;8864;-77
2023/07/04 02:57:49;;;;;;;;;10.40;10.20;;;;;22.91;34.84;99096.09;4913295;29;8864;-78
2023/07/04 03:00:18;;;;;;;;;11.80;11.00;;;;;22.92;34.71;99096.94;4917148;29;8867;-81
2023/07/04 03:02:49;;;;;;;;;12.60;11.60;;;;;22.94;34.58;99095.84;4914186;29;8871;-79
2023/07/04 03:05:19;;;;;;;;;12.20;12.20;;;;;22.95;34.45;99092.19;4912800;29;8901;-78
2023/07/04 03:07:49;;;;;;;;;14.20;12.80;;;;;22.99;34.63;99090.94;4928687;29;8875;-79
2023/07/04 03:10:20;;;;;;;;;12.40;12.00;;;;;23.01;34.35;99096.19;4912632;29;8879;-79
2023/07/04 03:12:49;;;;;;;;;12.60;12.20;;;;;23.01;34.44;99101.56;4927636;29;8894;-82
2023/07/04 03:15:19;;;;;;;;;13.20;12.40;;;;;23.07;34.41;99093.03;4928013;29;8859;-80
2023/07/04 03:17:51;;;;;;;;;15.60;13.80;;;;;23.13;34.23;99105.94;4927630;29;8875;-80
2023/07/04 03:20:22;;;;;;;;;16.00;14.40;;;;;23.21;34.38;99096.44;4927883;29;8879;-82
2023/07/04 03:22:56;;;;;;;;;13.20;11.40;;;;;23.30;34.10;99101.91;4914768;29;8950;-82
2023/07/04 03:25:27;;;;;;;;;13.00;11.20;;;;;23.35;34.15;99102.34;4913958;29;8875;-81
2023/07/04 03:27:58;;;;;;;;;11.20;11.20;;;;;23.44;34.01;99098.09;4929563;29;8855;-79
2023/07/04 03:30:30;;;;;;;;;12.20;12.20;;;;;23.55;33.52;99102.59;4884129;29;8875;-82
2023/07/04 03:33:06;;;;;;;;;11.00;10.60;;;;;23.60;33.37;99092.31;4929447;29;8870;-79
2023/07/04 03:35:38;;;;;;;;;15.60;14.00;;;;;23.67;33.29;99098.06;4928640;29;8863;-79
2023/07/04 03:38:28;;;;;;;;;12.00;8.20;;;;;23.80;33.08;99097.88;4910242;29;8903;-79
2023/07/04 03:40:59;;;;;;;;;12.00;12.00;;;;;23.88;32.96;99095.41;4894409;29;8885;-77
2023/07/04 03:43:28;;;;;;;;;11.80;10.80;;;;;23.91;33.16;99093.31;4911099;29;8980;-82
2023/07/04 03:45:57;;;;;;;;;35.50;31.50;;;;;23.99;33.11;99089.97;4911085;29;8881;-78
2023/07/04 03:48:26;;;;;;;;;11.40;11.40;;;;;24.05;32.36;99085.94;4911827;29;9277;-79
2023/07/04 03:50:55;;;;;;;;;15.60;13.40;;;;;24.15;32.67;99087.75;4912038;29;8866;-80
2023/07/04 03:53:24;;;;;;;;;14.60;14.00;;;;;24.26;32.89;99091.34;4898056;29;8975;-81
2023/07/04 03:55:54;;;;;;;;;10.00;10.00;;;;;24.34;32.83;99087.03;4910904;29;8898;-78
2023/07/04 03:58:23;;;;;;;;;14.60;14.00;;;;;24.40;32.19;99085.63;4927683;29;8938;-79
2023/07/04 04:00:53;;;;;;;;;55.50;44.50;;;;;24.47;32.37;99094.88;4928158;29;8871;-82
2023/07/04 04:03:24;;;;;;;;;30.00;27.50;;;;;24.51;32.35;99090.94;4913370;29;8879;-80
2023/07/04 04:05:54;;;;;;;;;14.00;13.00;;;;;24.63;32.08;99093.53;4929325;29;8962;-79
2023/07/04 04:08:22;;;;;;;;;16.00;14.80;;;;;24.59;33.58;99094.81;4898043;29;8875;-80
2023/07/04 04:10:53;;;;;;;;;13.00;13.00;;;;;24.68;33.46;99093.97;4949569;29;8879;-79
2023/07/04 04:13:22;;;;;;;;;14.00;12.60;;;;;24.70;34.73;99094.72;4934306;29;8871;-79
2023/07/04 04:15:51;;;;;;;;;21.20;20.40;;;;;24.78;34.95;99100.28;4929937;29;8875;-79
2023/07/04 04:18:20;;;;;;;;;19.20;17.00;;;;;24.89;35.56;99097.50;4912210;29;9001;-77
2023/07/04 04:20:49;;;;;;;;;18.40;16.20;;;;;24.93;35.38;99104.31;4929237;29;8993;-79
2023/07/04 04:23:18;;;;;;;;;29.00;27.00;;;;;24.97;35.18;99102.22;4933877;29;8874;-77
2023/07/04 04:25:47;;;;;;;;;22.20;22.20;;;;;25.00;36.40;99103.75;4917507;29;8898;-76
2023/07/04 04:28:17;;;;;;;;;21.60;20.40;;;;;25.06;36.16;99112.16;4913019;29;8882;-80
2023/07/04 04:30:47;;;;;;;;;23.20;21.80;;;;;25.06;37.13;99112.16;4944432;29;8882;-77
2023/07/04 04:33:16;;;;;;;;;26.80;20.80;;;;;25.06;37.11;99114.00;4893913;29;8967;-77
2023/07/04 04:35:46;;;;;;;;;23.60;23.00;;;;;24.95;34.65;99132.91;4910804;29;8868;-79
2023/07/04 04:38:14;;;;;;;;;19.25;19.00;;;;;24.81;36.90;99126.91;4926196;29;8899;-78
2023/07/04 04:40:44;;;;;;;;;26.80;25.80;;;;;24.87;36.30;99121.00;4910755;29;8899;-77
2023/07/04 04:43:13;;;;;;;;;32.25;30.00;;;;;24.97;37.35;99118.34;4926301;29;8907;-77
2023/07/04 04:45:44;;;;;;;;;41.25;35.25;;;;;25.06;36.90;99116.69;4911185;29;8909;-79
2023/07/04 04:48:28;;;;;;;;;50.00;42.75;;;;;25.10;36.73;99121.66;4926571;29;8994;-75
2023/07/04 04:51:00;;;;;;;;;35.75;31.50;;;;;25.10;36.95;99126.19;4913001;29;8879;-74
2023/07/04 04:53:28;;;;;;;;;28.20;25.20;;;;;25.16;36.99;99112.19;4914128;29;8970;-74
2023/07/04 04:55:57;;;;;;;;;23.20;21.80;;;;;25.19;36.70;99108.34;4914522;29;8903;-75
2023/07/04 04:58:26;;;;;;;;;26.00;25.40;;;;;25.25;36.32;99118.59;4915366;29;8991;-73
2023/07/04 05:00:57;;;;;;;;;22.00;21.20;;;;;25.30;36.30;99110.94;4915164;29;8867;-74
2023/07/04 05:03:26;;;;;;;;;18.20;17.20;;;;;25.25;34.88;99114.06;4915093;29;8887;-76
2023/07/04 05:05:55;;;;;;;;;15.60;14.60;;;;;25.30;33.55;99109.13;4912779;29;9574;-72
2023/07/04 05:08:23;;;;;;;;;16.60;15.60;;;;;25.24;33.56;99106.13;4914047;29;8911;-72
2023/07/04 05:10:59;;;;;;;;;15.60;14.40;;;;;25.32;33.63;99106.28;4913937;29;8887;-73
2023/07/04 05:13:28;;;;;;;;;17.00;14.60;;;;;25.33;33.48;99116.09;4909578;29;8869;-72
2023/07/04 05:16:03;;;;;;;;;13.60;12.80;;;;;25.45;33.12;99122.19;4913650;29;8898;-76
2023/07/04 05:18:32;;;;;;;;;16.20;14.20;;;;;25.49;33.21;99120.91;4914408;29;9685;-73
2023/07/04 05:21:03;;;;;;;;;12.60;11.60;;;;;25.46;33.00;99122.06;4913239;29;9629;-72
2023/07/04 05:23:32;;;;;;;;;10.60;10.40;;;;;25.51;33.38;99114.44;4913517;29;9022;-74
2023/07/04 05:26:02;;;;;;;;;14.80;14.20;;;;;25.45;33.26;99112.28;4914364;29;8867;-76
2023/07/04 05:28:31;;;;;;;;;12.00;12.00;;;;;25.52;33.28;99110.72;4914557;29;8894;-72
2023/07/04 05:31:03;;;;;;;;;14.20;14.20;;;;;25.58;33.46;99113.88;4896690;29;8907;-74
2023/07/04 05:33:33;;;;;;;;;14.20;13.80;;;;;25.67;33.33;99113.88;4913690;29;8879;-72
2023/07/04 05:36:07;;;;;;;;;13.20;13.20;;;;;25.75;32.68;99115.88;4914254;29;8918;-73
2023/07/04 05:38:36;;;;;;;;;12.60;11.40;;;;;25.79;32.80;99121.81;4914943;29;8950;-76
2023/07/04 05:41:09;;;;;;;;;12.80;12.00;;;;;25.92;32.58;99118.88;4913542;29;8856;-73
2023/07/04 05:43:37;;;;;;;;;11.60;11.40;;;;;26.05;32.58;99124.84;4914735;29;8883;-74
2023/07/04 05:46:09;;;;;;;;;12.60;11.80;;;;;26.24;32.08;99127.50;4914281;29;8897;-74
2023/07/04 05:48:39;;;;;;;;;13.00;11.80;;;;;26.39;32.04;99127.06;4911303;29;9001;-75
2023/07/04 05:51:10;;;;;;;;;13.00;11.60;;;;;26.52;31.68;99130.34;4911824;29;8855;-73
2023/07/04 05:53:41;;;;;;;;;12.80;12.40;;;;;26.63;31.83;99126.63;4911825;29;8982;-72
2023/07/04 05:56:13;;;;;;;;;14.00;13.00;;;;;26.68;32.23;99121.63;4880384;29;8885;-77
2023/07/04 05:58:43;;;;;;;;;17.00;14.40;;;;;26.81;32.70;99126.72;4911053;29;9242;-74
2023/07/04 06:01:16;;;;;;;;;12.20;11.80;;;;;27.10;32.15;99129.34;4911263;29;8903;-74
2023/07/04 06:03:44;;;;;;;;;12.20;12.20;;;;;27.17;31.95;99130.41;4894445;29;8871;-72
2023/07/04 06:06:18;;;;;;;;;12.00;11.80;;;;;27.15;31.49;99137.81;4911377;29;8871;-75
2023/07/04 06:08:48;;;;;;;;;12.40;12.40;;;;;27.23;30.79;99132.53;4911554;29;8891;-73
2023/07/04 06:11:18;;;;;;;;;12.00;12.00;;;;;27.35;30.78;99135.88;4911180;29;8997;-73
2023/07/04 06:13:47;;;;;;;;;12.20;12.20;;;;;27.37;30.86;99136.56;4912427;29;8863;-74
2023/07/04 06:16:17;;;;;;;;;13.40;12.40;;;;;27.43;31.00;99135.97;4911860;29;8859;-75
2023/07/04 06:18:47;;;;;;;;;13.40;11.20;;;;;27.54;30.85;99139.47;4910976;29;9013;-74
2023/07/04 06:21:18;;;;;;;;;14.00;12.80;;;;;27.71;30.80;99135.97;4913791;29;8875;-72
2023/07/04 06:24:01;;;;;;;;;11.80;10.80;;;;;27.82;30.08;99141.16;4913908;29;8847;-74
2023/07/04 06:26:32;;;;;;;;;10.20;9.80;;;;;27.75;29.96;99142.75;4913811;29;8856;-75
2023/07/04 06:29:01;;;;;;;;;12.40;11.40;;;;;27.89;29.06;99137.81;4913828;29;9730;-80
2023/07/04 06:31:31;;;;;;;;;10.20;10.20;;;;;27.92;28.29;99145.63;4913345;29;8871;-73
2023/07/04 06:34:01;;;;;;;;;12.60;11.60;;;;;28.00;27.70;99151.09;4928036;29;9115;-73
2023/07/04 06:36:30;;;;;;;;;13.40;12.00;;;;;27.94;27.58;99149.84;4928889;29;8893;-79
2023/07/04 06:39:00;;;;;;;;;10.40;10.00;;;;;27.96;27.35;99153.25;4929549;29;8985;-77
2023/07/04 06:41:29;;;;;;;;;10.80;9.60;;;;;28.02;27.01;99147.25;4925973;29;8872;-74
2023/07/04 06:43:58;;;;;;;;;11.40;10.60;;;;;28.03;27.32;99156.19;4923328;29;8870;-72
2023/07/04 06:46:27;;;;;;;;;11.80;11.00;;;;;28.11;27.05;99161.69;4916613;29;8886;-72
2023/07/04 06:48:57;;;;;;;;;9.60;9.60;;;;;28.22;27.79;99153.34;4929414;29;8886;-76
2023/07/04 06:51:29;;;;;;;;;14.20;12.20;;;;;28.27;28.07;99152.03;4928466;29;8858;-76
2023/07/04 06:53:59;;;;;;;;;10.80;10.80;;;;;28.44;28.54;99151.16;4929948;29;8958;-76
2023/07/04 06:56:28;;;;;;;;;12.80;12.60;;;;;28.56;27.99;99147.19;4926682;29;8883;-77
2023/07/04 06:58:57;;;;;;;;;12.60;11.60;;;;;28.56;27.53;99141.78;4929568;29;8900;-79
2023/07/04 07:01:27;;;;;;;;;11.20;11.20;;;;;28.60;27.56;99145.03;4929842;29;8882;-80
2023/07/04 07:03:59;;;;;;;;;11.00;9.00;;;;;28.74;27.29;99143.63;4914006;29;8885;-76
2023/07/04 07:06:29;;;;;;;;;11.00;9.40;;;;;28.80;27.66;99153.78;4913280;29;8856;-77
2023/07/04 07:08:57;;;;;;;;;12.80;12.80;;;;;28.77;27.87;99154.97;4913039;29;8997;-78
2023/07/04 07:11:26;;;;;;;;;12.20;12.00;;;;;28.91;28.04;99156.22;4912877;29;8875;-76
2023/07/04 07:13:55;;;;;;;;;12.20;10.40;;;;;29.06;28.01;99156.47;4911328;29;8906;-77
2023/07/04 07:16:26;;;;;;;;;10.60;9.40;;;;;29.10;27.68;99152.47;4912125;29;8878;-78
2023/07/04 07:18:56;;;;;;;;;11.40;10.80;;;;;29.19;27.92;99161.47;4912829;29;8864;-76
2023/07/04 07:21:27;;;;;;;;;12.40;11.20;;;;;29.26;27.60;99153.56;4912868;29;8875;-77
2023/07/04 07:23:56;;;;;;;;;11.40;11.00;;;;;29.36;27.80;99155.13;4895281;29;9413;-79
2023/07/04 07:26:27;;;;;;;;;12.40;12.40;;;;;29.36;28.37;99152.41;4912645;29;8875;-78
2023/07/04 07:28:57;;;;;;;;;9.60;9.60;;;;;29.43;28.29;99152.63;4911194;29;8867;-78
2023/07/04 07:31:28;;;;;;;;;10.20;10.20;;;;;29.50;27.35;99150.97;4913010;29;8877;-78
2023/07/04 07:34:02;;;;;;;;;10.40;10.40;;;;;29.53;27.74;99153.31;4912576;29;8887;-76
2023/07/04 07:36:37;;;;;;;;;10.80;9.00;;;;;29.62;27.72;99145.22;4912985;29;8937;-78
2023/07/04 07:39:09;;;;;;;;;11.00;11.00;;;;;29.65;26.76;99159.28;4912986;29;9688;-78
2023/07/04 07:41:40;;;;;;;;;8.40;7.20;;;;;29.43;26.26;99151.78;4912820;29;8965;-78
2023/07/04 07:44:11;;;;;;;;;8.60;8.60;;;;;29.60;26.83;99155.38;4912483;29;8978;-80
2023/07/04 07:46:41;;;;;;;;;12.20;11.40;;;;;29.58;26.04;99152.84;4911219;29;8914;-78
2023/07/04 07:49:10;;;;;;;;;10.60;10.40;;;;;29.72;26.36;99151.38;4910313;29;8880;-77
2023/07/04 07:51:41;;;;;;;;;10.80;10.20;;;;;29.70;26.37;99164.22;4912806;29;8863;-78
2023/07/04 07:54:10;;;;;;;;;9.80;9.40;;;;;29.71;26.59;99163.22;4912413;29;8985;-78
2023/07/04 07:56:43;;;;;;;;;11.00;10.20;;;;;29.80;26.23;99167.63;4912131;29;8844;-76
2023/07/04 07:59:12;;;;;;;;;13.00;12.60;;;;;29.89;26.02;99174.75;4912877;29;8934;-77
2023/07/04 08:01:41;;;;;;;;;11.20;10.20;;;;;29.88;26.34;99178.50;4913210;29;8891;-76
2023/07/04 08:04:10;;;;;;;;;12.60;12.60;;;;;29.83;26.25;99182.72;4912236;29;9704;-77
2023/07/04 08:06:46;;;;;;;;;11.60;11.40;;;;;29.77;25.85;99173.41;4912343;29;8878;-77
2023/07/04 08:09:17;;;;;;;;;12.40;12.20;;;;;29.88;25.70;99177.66;4893913;29;8887;-76
2023/07/04 08:11:48;;;;;;;;;14.20;14.20;;;;;29.93;25.82;99176.13;4912158;29;8867;-77
2023/07/04 08:14:20;;;;;;;;;13.40;13.40;;;;;30.08;25.46;99183.59;4912116;29;8871;-77
2023/07/04 08:16:51;;;;;;;;;12.00;10.60;;;;;30.09;25.77;99174.47;4911845;29;8863;-77
2023/07/04 08:19:23;;;;;;;;;12.20;12.20;;;;;30.35;25.95;99163.47;4911912;29;8883;-77
2023/07/04 08:21:54;;;;;;;;;15.80;13.20;;;;;30.44;25.95;99167.88;4912090;29;8923;-77
2023/07/04 08:24:23;;;;;;;;;10.80;9.20;;;;;30.66;25.96;99174.47;4909353;29;8875;-76
2023/07/04 08:26:55;;;;;;;;;11.40;10.20;;;;;30.70;24.86;99173.16;4915196;29;8906;-76
2023/07/04 08:29:24;;;;;;;;;9.80;9.80;;;;;30.63;24.87;99174.81;4915597;29;8879;-77
2023/07/04 08:31:53;;;;;;;;;8.00;8.00;;;;;30.62;25.02;99170.44;4916053;29;8898;-78
2023/07/04 08:34:22;;;;;;;;;12.80;11.80;;;;;30.64;24.92;99159.41;4915744;29;8895;-78
2023/07/04 08:36:51;;;;;;;;;11.00;11.00;;;;;30.45;25.85;99169.59;4915524;29;9741;-78
2023/07/04 08:39:21;;;;;;;;;11.60;9.80;;;;;30.14;25.18;99166.66;4915652;29;8874;-77
2023/07/04 08:41:56;;;;;;;;;12.40;12.40;;;;;30.24;25.34;99166.56;4915597;29;8958;-76
2023/07/04 08:44:34;;;;;;;;;13.80;13.00;;;;;30.26;24.76;99172.66;4915648;29;8875;-78
2023/07/04 08:47:04;;;;;;;;;12.40;11.80;;;;;30.13;25.02;99176.66;4913195;29;8859;-78
2023/07/04 08:49:39;;;;;;;;;13.20;12.60;;;;;29.87;24.70;99171.38;4915310;29;8883;-78
2023/07/04 08:52:16;;;;;;;;;9.80;9.20;;;;;29.99;24.88;99176.47;4915666;29;8970;-77
2023/07/04 08:54:48;;;;;;;;;10.40;10.00;;;;;29.99;24.76;99171.91;4915690;29;8958;-77
2023/07/04 08:57:30;;;;;;;;;11.20;11.20;;;;;29.98;24.59;99183.78;4915431;29;8946;-77
2023/07/04 09:00:05;;;;;;;;;10.40;9.40;;;;;29.93;24.64;99181.53;4913064;29;8871;-76
2023/07/04 09:03:03;;;;;;;;;12.60;11.60;;;;;30.07;24.74;99179.22;4914720;29;8879;-77
2023/07/04 09:05:44;;;;;;;;;13.40;12.20;;;;;29.92;24.57;99182.56;4914357;29;8994;-78
2023/07/04 09:08:22;;;;;;;;;13.40;12.20;;;;;29.93;24.97;99192.38;4915183;29;8981;-76
2023/07/04 09:10:57;;;;;;;;;12.20;11.20;;;;;30.03;25.68;99186.84;4915255;29;8894;-79
2023/07/04 09:13:30;;;;;;;;;11.80;10.80;;;;;30.13;25.11;99183.97;4913166;29;8856;-77
2023/07/04 09:16:03;;;;;;;;;15.00;14.00;;;;;30.13;25.72;99184.81;4915181;29;8871;-77
2023/07/04 09:18:42;;;;;;;;;11.80;11.40;;;;;30.26;25.40;99187.06;4912845;29;8879;-77
2023/07/04 09:21:14;;;;;;;;;9.40;9.40;;;;;29.97;24.71;99182.06;4915077;29;8898;-76
2023/07/04 09:23:45;;;;;;;;;9.60;9.60;;;;;30.07;24.80;99181.94;4915294;29;8863;-76
2023/07/04 09:26:24;;;;;;;;;10.00;10.00;;;;;29.92;24.43;99185.28;4914870;29;8879;-77
2023/07/04 09:28:56;;;;;;;;;10.20;9.20;;;;;30.02;24.24;99184.28;4897413;29;8960;-77
2023/07/04 09:31:29;;;;;;;;;9.60;9.60;;;;;30.14;24.96;99188.34;4913580;29;8883;-77
2023/07/04 09:34:03;;;;;;;;;10.20;9.40;;;;;30.12;25.40;99185.84;4915139;29;8856;-78
2023/07/04 09:36:34;;;;;;;;;11.40;10.00;;;;;30.11;25.55;99186.84;4915141;29;8891;-75
2023/07/04 09:39:04;;;;;;;;;11.20;10.60;;;;;29.89;24.98;99180.19;4916623;29;8907;-76
2023/07/04 09:41:37;;;;;;;;;9.80;9.60;;;;;30.14;24.80;99188.34;4919294;29;8979;-77
2023/07/04 09:44:28;;;;;;;;;15.40;15.40;;;;;30.06;24.54;99183.78;4915085;29;8994;-79
2023/07/04 09:47:01;;;;;;;;;8.60;8.00;;;;;30.03;25.18;99180.53;4916501;29;8905;-77
2023/07/04 09:49:31;;;;;;;;;8.00;7.80;;;;;30.15;23.96;99181.94;4915840;29;8887;-78
2023/07/04 09:52:02;;;;;;;;;11.00;11.00;;;;;30.10;25.11;99184.28;4914517;29;8883;-76
2023/07/04 09:54:33;;;;;;;;;9.40;9.00;;;;;30.05;25.18;99178.50;4914371;29;8986;-77
2023/07/04 09:57:24;;;;;;;;;9.20;8.60;;;;;30.25;25.04;99176.38;4914146;29;8961;-78
2023/07/04 09:59:54;;;;;;;;;9.60;9.60;;;;;30.19;24.91;99167.03;4912220;29;8855;-76
2023/07/04 10:02:33;;;;;;;;;12.20;11.40;;;;;30.28;25.50;99166.03;4914051;29;8922;-78
2023/07/04 10:05:03;;;;;;;;;11.00;9.80;;;;;30.30;26.31;99172.13;4914494;29;8863;-77
2023/07/04 10:07:32;;;;;;;;;10.20;9.40;;;;;30.28;25.55;99163.31;4914322;29;9700;-77
2023/07/04 10:10:04;;;;;;;;;11.40;10.40;;;;;30.34;25.30;99151.78;4912093;29;8875;-78
2023/07/04 10:12:43;;;;;;;;;10.20;9.80;;;;;30.44;25.01;99156.19;4914486;29;9620;-76
2023/07/04 10:15:24;;;;;;;;;11.00;10.60;;;;;30.47;24.50;99145.00;4914492;29;9644;-78
2023/07/04 10:17:52;;;;;;;;;9.60;9.60;;;;;30.52;24.58;99148.03;4928962;29;8875;-78
2023/07/04 10:20:21;;;;;;;;;12.60;11.80;;;;;30.31;25.45;99151.28;4928816;29;8882;-78
2023/07/04 10:22:53;;;;;;;;;10.00;10.00;;;;;30.34;25.91;99140.94;4913900;29;8879;-77
2023/07/04 10:25:25;;;;;;;;;8.20;8.20;;;;;30.18;26.21;99138.25;4913958;29;8890;-78
2023/07/04 10:27:59;;;;;;;;;13.20;12.40;;;;;30.34;25.67;99138.22;4912773;29;8864;-76
2023/07/04 10:30:30;;;;;;;;;10.80;10.00;;;;;30.23;25.67;99144.00;4913673;29;8863;-76
2023/07/04 10:33:03;;;;;;;;;10.80;10.80;;;;;30.32;25.61;99136.72;4911672;29;8875;-77
2023/07/04 10:35:36;;;;;;;;;11.40;10.40;;;;;30.35;25.68;99144.50;4896731;29;8902;-77
2023/07/04 10:38:10;;;;;;;;;11.00;11.00;;;;;30.46;25.88;99137.88;4928553;29;8982;-77
2023/07/04 10:40:40;;;;;;;;;10.00;9.60;;;;;30.49;25.46;99137.56;4913549;29;8902;-77
2023/07/04 10:43:14;;;;;;;;;10.20;10.20;;;;;30.38;25.87;99136.03;4911441;29;9606;-77
2023/07/04 10:45:47;;;;;;;;;12.20;12.00;;;;;30.49;26.03;99127.53;4913798;29;8974;-78
2023/07/04 10:48:32;;;;;;;;;12.20;11.80;;;;;30.64;26.30;99126.84;4911589;29;8871;-77
2023/07/04 10:51:07;;;;;;;;;11.40;11.40;;;;;30.73;24.92;99134.00;4913460;29;9633;-78
2023/07/04 10:53:36;;;;;;;;;12.60;12.40;;;;;30.77;25.90;99129.91;4913235;29;8901;-78
2023/07/04 10:56:08;;;;;;;;;10.00;10.00;;;;;30.86;25.83;99130.72;4913546;29;8964;-79
2023/07/04 10:58:43;;;;;;;;;12.40;12.00;;;;;30.92;25.50;99127.31;4913378;29;9034;-77
2023/07/04 11:01:17;;;;;;;;;11.60;11.60;;;;;31.11;25.89;99128.78;4913605;29;8883;-78
2023/07/04 11:03:52;;;;;;;;;11.80;11.80;;;;;31.24;25.13;99125.50;4912456;29;8863;-77
2023/07/04 11:06:32;;;;;;;;;11.00;11.00;;;;;31.26;25.14;99128.91;4912483;29;8867;-78
2023/07/04 11:09:04;;;;;;;;;14.40;13.60;;;;;31.41;25.49;99121.72;4896532;29;9610;-77
2023/07/04 11:11:34;;;;;;;;;13.20;12.00;;;;;31.56;26.20;99115.50;4913560;29;9637;-79
2023/07/04 11:14:07;;;;;;;;;13.80;11.80;;;;;31.69;25.25;99118.50;4913417;29;8994;-78
2023/07/04 11:16:41;;;;;;;;;10.80;10.80;;;;;31.78;25.20;99112.00;4913686;29;8855;-77
2023/07/04 11:19:16;;;;;;;;;10.40;10.40;;;;;31.80;24.99;99103.66;4913278;29;8995;-76
2023/07/04 11:22:15;;;;;;;;;9.60;9.60;;;;;32.11;24.09;99109.03;4895393;29;8962;-78
2023/07/04 11:24:53;;;;;;;;;13.75;13.50;;;;;32.37;24.27;99102.34;4891654;29;9639;-77
2023/07/04 11:27:24;;;;;;;;;12.25;11.75;;;;;32.37;23.94;99107.78;4891886;29;8892;-78
2023/07/04 11:29:56;;;;;;;;;12.00;11.40;;;;;32.68;23.37;99099.53;4891688;29;8922;-78
2023/07/04 11:32:32;;;;;;;;;19.25;16.50;;;;;32.88;23.47;99102.50;4892275;29;8865;-79
2023/07/04 11:35:15;;;;;;;;;9.80;9.80;;;;;32.97;22.57;99098.66;4849319;29;8984;-81
2023/07/04 11:37:51;;;;;;;;;12.80;12.00;;;;;33.00;22.99;99097.47;4893530;29;8888;-78
2023/07/04 11:40:24;;;;;;;;;13.60;13.00;;;;;33.15;21.90;99092.88;4845164;29;8963;-77
2023/07/04 11:42:58;;;;;;;;;12.75;11.75;;;;;33.35;22.02;99093.09;4891493;29;8963;-79
2023/07/04 11:45:30;;;;;;;;;12.40;11.40;;;;;33.56;22.85;99088.75;4891396;29;8889;-77
2023/07/04 11:48:02;;;;;;;;;10.60;10.60;;;;;33.86;21.59;99086.72;4860779;29;8865;-79